sensor_id;sensor_type;location;lat;lon;timestamp;P1;P2;P0
64861;PMS5003;62652;42.274;-71.436;2023-12-14T00:00:00;1.80;1.80;1.63
64861;PMS5003;62652;42.274;-71.436;2023-12-14T00:01:00;2.20;2.20;1.13
64861;PMS5003;62652;42.274;-71.436;2023-12-14T00:02:00;0.73;0.73;0.73
64861;PMS5003;62652;42.274;-71.436;2023-12-14T00:03:00;2.53;2.00;1.10
64861;PMS5003;62652;42.274;-71.436;2023-12-14T00:04:00;2.70;2.00;1.67
64861;PMS5003;62652;42.274;-71.436;2023-12-14T00:05:00;1.57;1.30;1.00
64861;PMS5003;62652;42.274;-71.436;2023-12-14T00:06:00;2.67;2.27;1.27
64861;PMS5003;62652;42.274;-71.436;2023-12-14T00:07:00;3.17;3.00;2.00
64861;PMS5003;62652;42.274;-71.436;2023-12-14T00:08:00;1.70;1.70;1.20
64861;PMS5003;62652;42.274;-71.436;2023-12-14T00:09:00;2.20;2.00;1.87
64861;PMS5003;62652;42.274;-71.436;2023-12-14T00:10:00;2.57;2.13;1.33
64861;PMS5003;62652;42.274;-71.436;2023-12-14T00:11:02;2.03;2.00;1.83
64861;PMS5003;62652;42.274;-71.436;2023-12-14T00:12:00;1.83;1.60;1.00
64861;PMS5003;62652;42.274;-71.436;2023-12-14T00:13:00;2.77;1.87;1.77
64861;PMS5003;62652;42.274;-71.436;2023-12-14T00:14:00;2.27;2.27;1.80
64861;PMS5003;62652;42.274;-71.436;2023-12-14T00:15:00;1.77;1.33;0.87
64861;PMS5003;62652;42.274;-71.436;2023-12-14T00:16:00;2.50;2.50;2.00
64861;PMS5003;62652;42.274;-71.436;2023-12-14T00:17:00;2.33;2.00;1.73
64861;PMS5003;62652;42.274;-71.436;2023-12-14T00:18:00;2.37;2.20;1.67
64861;PMS5003;62652;42.274;-71.436;2023-12-14T00:19:00;3.00;2.67;1.67
64861;PMS5003;62652;42.274;-71.436;2023-12-14T00:20:00;2.00;2.00;1.97
64861;PMS5003;62652;42.274;-71.436;2023-12-14T00:21:00;2.43;2.10;1.13
64861;PMS5003;62652;42.274;-71.436;2023-12-14T00:22:00;2.60;2.20;1.60
64861;PMS5003;62652;42.274;-71.436;2023-12-14T00:23:00;2.10;1.43;1.33
64861;PMS5003;62652;42.274;-71.436;2023-12-14T00:24:00;2.27;2.00;1.00
64861;PMS5003;62652;42.274;-71.436;2023-12-14T00:25:00;2.00;2.00;1.53
64861;PMS5003;62652;42.274;-71.436;2023-12-14T00:26:00;1.43;1.43;1.33
64861;PMS5003;62652;42.274;-71.436;2023-12-14T00:27:00;2.17;2.17;1.57
64861;PMS5003;62652;42.274;-71.436;2023-12-14T00:28:00;2.10;2.00;1.37
64861;PMS5003;62652;42.274;-71.436;2023-12-14T00:29:00;2.33;2.00;1.50
64861;PMS5003;62652;42.274;-71.436;2023-12-14T00:30:01;2.43;2.40;1.63
64861;PMS5003;62652;42.274;-71.436;2023-12-14T00:31:00;2.60;2.10;1.87
64861;PMS5003;62652;42.274;-71.436;2023-12-14T00:32:00;2.23;2.07;1.53
64861;PMS5003;62652;42.274;-71.436;2023-12-14T00:33:00;1.47;1.47;1.27
64861;PMS5003;62652;42.274;-71.436;2023-12-14T00:34:00;2.90;2.60;2.00
64861;PMS5003;62652;42.274;-71.436;2023-12-14T00:35:00;3.57;3.30;2.00
64861;PMS5003;62652;42.274;-71.436;2023-12-14T00:36:00;1.03;1.03;1.00
64861;PMS5003;62652;42.274;-71.436;2023-12-14T00:37:00;2.33;2.10;1.30
64861;PMS5003;62652;42.274;-71.436;2023-12-14T00:38:00;2.63;2.63;1.80
64861;PMS5003;62652;42.274;-71.436;2023-12-14T00:39:00;2.47;2.47;1.67
64861;PMS5003;62652;42.274;-71.436;2023-12-14T00:40:00;3.33;2.83;2.00
64861;PMS5003;62652;42.274;-71.436;2023-12-14T00:41:00;2.57;2.57;1.67
64861;PMS5003;62652;42.274;-71.436;2023-12-14T00:42:00;1.87;1.87;1.00
64861;PMS5003;62652;42.274;-71.436;2023-12-14T00:43:00;2.60;2.60;1.60
64861;PMS5003;62652;42.274;-71.436;2023-12-14T00:44:00;1.97;1.97;1.77
64861;PMS5003;62652;42.274;-71.436;2023-12-14T00:45:00;2.00;1.90;1.73
64861;PMS5003;62652;42.274;-71.436;2023-12-14T00:46:00;2.70;2.70;2.30
64861;PMS5003;62652;42.274;-71.436;2023-12-14T00:47:00;2.00;1.83;1.23
64861;PMS5003;62652;42.274;-71.436;2023-12-14T00:48:00;2.60;2.30;1.77
64861;PMS5003;62652;42.274;-71.436;2023-12-14T00:49:00;2.60;2.60;1.77
64861;PMS5003;62652;42.274;-71.436;2023-12-14T00:50:00;1.83;1.80;1.00
64861;PMS5003;62652;42.274;-71.436;2023-12-14T00:51:00;2.43;2.43;1.93
64861;PMS5003;62652;42.274;-71.436;2023-12-14T00:52:00;2.87;2.87;1.97
64861;PMS5003;62652;42.274;-71.436;2023-12-14T00:53:00;2.60;2.60;1.90
64861;PMS5003;62652;42.274;-71.436;2023-12-14T00:54:00;3.07;2.63;1.77
64861;PMS5003;62652;42.274;-71.436;2023-12-14T00:55:00;3.37;2.67;2.00
64861;PMS5003;62652;42.274;-71.436;2023-12-14T00:56:01;1.87;1.67;1.67
64861;PMS5003;62652;42.274;-71.436;2023-12-14T00:57:00;2.80;1.90;1.20
64861;PMS5003;62652;42.274;-71.436;2023-12-14T00:58:00;2.17;2.07;1.33
64861;PMS5003;62652;42.274;-71.436;2023-12-14T00:59:00;2.73;2.47;1.80
64861;PMS5003;62652;42.274;-71.436;2023-12-14T01:00:00;1.93;1.93;1.10
64861;PMS5003;62652;42.274;-71.436;2023-12-14T01:01:00;2.00;2.00;1.00
64861;PMS5003;62652;42.274;-71.436;2023-12-14T01:02:00;2.03;1.77;1.77
64861;PMS5003;62652;42.274;-71.436;2023-12-14T01:03:00;2.67;2.67;2.00
64861;PMS5003;62652;42.274;-71.436;2023-12-14T01:04:00;2.23;1.57;1.13
64861;PMS5003;62652;42.274;-71.436;2023-12-14T01:05:00;2.90;2.70;2.00
64861;PMS5003;62652;42.274;-71.436;2023-12-14T01:06:00;1.83;1.73;1.00
64861;PMS5003;62652;42.274;-71.436;2023-12-14T01:07:00;1.97;1.97;1.67
64861;PMS5003;62652;42.274;-71.436;2023-12-14T01:08:00;2.63;2.00;1.33
64861;PMS5003;62652;42.274;-71.436;2023-12-14T01:09:00;1.83;1.83;1.03
64861;PMS5003;62652;42.274;-71.436;2023-12-14T01:10:00;1.43;1.43;1.13
64861;PMS5003;62652;42.274;-71.436;2023-12-14T01:11:00;1.43;1.43;1.33
64861;PMS5003;62652;42.274;-71.436;2023-12-14T01:12:00;3.07;3.00;2.57
64861;PMS5003;62652;42.274;-71.436;2023-12-14T01:13:00;1.63;1.63;1.10
64861;PMS5003;62652;42.274;-71.436;2023-12-14T01:14:00;1.67;1.67;1.00
64861;PMS5003;62652;42.274;-71.436;2023-12-14T01:15:00;2.00;2.00;1.20
64861;PMS5003;62652;42.274;-71.436;2023-12-14T01:16:00;2.27;2.27;2.00
64861;PMS5003;62652;42.274;-71.436;2023-12-14T01:17:00;2.20;2.20;1.63
64861;PMS5003;62652;42.274;-71.436;2023-12-14T01:18:00;1.87;1.60;1.20
64861;PMS5003;62652;42.274;-71.436;2023-12-14T01:19:00;2.17;2.17;1.17
64861;PMS5003;62652;42.274;-71.436;2023-12-14T01:20:00;2.70;2.00;1.97
64861;PMS5003;62652;42.274;-71.436;2023-12-14T01:21:00;2.13;2.13;1.13
64861;PMS5003;62652;42.274;-71.436;2023-12-14T01:22:00;2.83;2.00;1.10
64861;PMS5003;62652;42.274;-71.436;2023-12-14T01:23:00;2.33;2.03;1.43
64861;PMS5003;62652;42.274;-71.436;2023-12-14T01:24:00;1.77;1.77;1.00
64861;PMS5003;62652;42.274;-71.436;2023-12-14T01:25:00;2.23;2.00;1.00
64861;PMS5003;62652;42.274;-71.436;2023-12-14T01:26:00;1.57;1.57;1.13
64861;PMS5003;62652;42.274;-71.436;2023-12-14T01:27:00;1.77;1.77;1.47
64861;PMS5003;62652;42.274;-71.436;2023-12-14T01:28:00;1.47;1.47;0.97
64861;PMS5003;62652;42.274;-71.436;2023-12-14T01:29:01;1.90;1.90;1.03
64861;PMS5003;62652;42.274;-71.436;2023-12-14T01:30:00;2.03;2.03;1.53
64861;PMS5003;62652;42.274;-71.436;2023-12-14T01:31:00;1.77;1.23;0.73
64861;PMS5003;62652;42.274;-71.436;2023-12-14T01:32:00;1.17;1.17;1.00
64861;PMS5003;62652;42.274;-71.436;2023-12-14T01:33:00;2.17;2.00;1.17
64861;PMS5003;62652;42.274;-71.436;2023-12-14T01:34:00;1.90;1.90;1.23
64861;PMS5003;62652;42.274;-71.436;2023-12-14T01:35:00;1.73;1.70;1.00
64861;PMS5003;62652;42.274;-71.436;2023-12-14T01:36:00;1.00;1.00;1.00
64861;PMS5003;62652;42.274;-71.436;2023-12-14T01:37:00;2.00;1.77;1.00
64861;PMS5003;62652;42.274;-71.436;2023-12-14T01:38:00;2.73;2.30;1.00
64861;PMS5003;62652;42.274;-71.436;2023-12-14T01:39:00;1.60;1.60;1.00
64861;PMS5003;62652;42.274;-71.436;2023-12-14T01:40:00;1.43;1.43;1.00
64861;PMS5003;62652;42.274;-71.436;2023-12-14T01:41:00;1.23;1.23;1.00
64861;PMS5003;62652;42.274;-71.436;2023-12-14T01:42:00;1.67;1.10;1.00
64861;PMS5003;62652;42.274;-71.436;2023-12-14T01:43:06;1.93;1.27;0.80
64861;PMS5003;62652;42.274;-71.436;2023-12-14T01:44:00;1.60;1.47;1.00
64861;PMS5003;62652;42.274;-71.436;2023-12-14T01:45:00;1.00;1.00;1.00
64861;PMS5003;62652;42.274;-71.436;2023-12-14T01:46:00;2.03;1.37;0.87
64861;PMS5003;62652;42.274;-71.436;2023-12-14T01:47:00;1.70;1.60;0.87
64861;PMS5003;62652;42.274;-71.436;2023-12-14T01:48:00;1.67;1.67;0.90
64861;PMS5003;62652;42.274;-71.436;2023-12-14T01:49:00;1.10;1.10;1.10
64861;PMS5003;62652;42.274;-71.436;2023-12-14T01:50:00;1.17;1.17;0.97
64861;PMS5003;62652;42.274;-71.436;2023-12-14T01:51:00;2.30;2.00;1.00
64861;PMS5003;62652;42.274;-71.436;2023-12-14T01:52:00;2.33;1.97;1.00
64861;PMS5003;62652;42.274;-71.436;2023-12-14T01:53:00;1.23;1.13;0.93
64861;PMS5003;62652;42.274;-71.436;2023-12-14T01:54:00;0.90;0.90;0.47
64861;PMS5003;62652;42.274;-71.436;2023-12-14T01:55:00;1.30;1.30;0.83
64861;PMS5003;62652;42.274;-71.436;2023-12-14T01:56:00;1.33;1.33;1.00
64861;PMS5003;62652;42.274;-71.436;2023-12-14T01:57:00;1.27;1.27;0.90
64861;PMS5003;62652;42.274;-71.436;2023-12-14T01:58:00;0.93;0.93;0.83
64861;PMS5003;62652;42.274;-71.436;2023-12-14T01:59:00;0.90;0.90;0.77
64861;PMS5003;62652;42.274;-71.436;2023-12-14T02:00:00;1.00;1.00;0.83
64861;PMS5003;62652;42.274;-71.436;2023-12-14T02:01:03;1.90;1.13;0.83
64861;PMS5003;62652;42.274;-71.436;2023-12-14T02:02:00;1.70;1.70;1.00
64861;PMS5003;62652;42.274;-71.436;2023-12-14T02:03:00;2.00;2.00;1.00
64861;PMS5003;62652;42.274;-71.436;2023-12-14T02:04:00;2.03;1.37;0.90
64861;PMS5003;62652;42.274;-71.436;2023-12-14T02:05:00;0.97;0.97;0.67
64861;PMS5003;62652;42.274;-71.436;2023-12-14T02:06:00;1.10;1.10;1.00
64861;PMS5003;62652;42.274;-71.436;2023-12-14T02:07:00;1.57;1.57;1.00
64861;PMS5003;62652;42.274;-71.436;2023-12-14T02:08:00;2.30;1.57;1.20
64861;PMS5003;62652;42.274;-71.436;2023-12-14T02:09:00;2.07;2.07;1.77
64861;PMS5003;62652;42.274;-71.436;2023-12-14T02:10:00;1.10;1.10;0.33
64861;PMS5003;62652;42.274;-71.436;2023-12-14T02:11:00;0.70;0.30;0.00
64861;PMS5003;62652;42.274;-71.436;2023-12-14T02:12:00;1.00;0.90;0.30
64861;PMS5003;62652;42.274;-71.436;2023-12-14T02:13:01;2.10;0.87;0.10
64861;PMS5003;62652;42.274;-71.436;2023-12-14T02:14:03;0.80;0.80;0.27
64861;PMS5003;62652;42.274;-71.436;2023-12-14T02:15:00;1.07;1.03;0.23
64861;PMS5003;62652;42.274;-71.436;2023-12-14T02:16:00;0.57;0.57;0.17
64861;PMS5003;62652;42.274;-71.436;2023-12-14T02:17:00;0.90;0.90;0.00
64861;PMS5003;62652;42.274;-71.436;2023-12-14T02:18:00;1.60;1.60;1.10
64861;PMS5003;62652;42.274;-71.436;2023-12-14T02:19:00;1.00;1.00;0.70
64861;PMS5003;62652;42.274;-71.436;2023-12-14T02:20:00;0.97;0.43;0.03
64861;PMS5003;62652;42.274;-71.436;2023-12-14T02:21:00;1.33;1.07;0.77
64861;PMS5003;62652;42.274;-71.436;2023-12-14T02:22:00;0.13;0.13;0.00
64861;PMS5003;62652;42.274;-71.436;2023-12-14T02:23:00;1.00;1.00;1.00
64861;PMS5003;62652;42.274;-71.436;2023-12-14T02:24:00;1.37;1.37;1.00
64861;PMS5003;62652;42.274;-71.436;2023-12-14T02:25:00;0.93;0.50;0.07
64861;PMS5003;62652;42.274;-71.436;2023-12-14T02:26:00;0.63;0.63;0.33
64861;PMS5003;62652;42.274;-71.436;2023-12-14T02:27:00;1.77;1.47;0.10
64861;PMS5003;62652;42.274;-71.436;2023-12-14T02:28:00;0.87;0.87;0.00
64861;PMS5003;62652;42.274;-71.436;2023-12-14T02:29:00;1.30;1.30;0.23
64861;PMS5003;62652;42.274;-71.436;2023-12-14T02:30:00;0.63;0.53;0.00
64861;PMS5003;62652;42.274;-71.436;2023-12-14T02:31:00;1.10;1.03;0.37
64861;PMS5003;62652;42.274;-71.436;2023-12-14T02:32:00;0.57;0.53;0.00
64861;PMS5003;62652;42.274;-71.436;2023-12-14T02:33:00;1.00;0.57;0.27
64861;PMS5003;62652;42.274;-71.436;2023-12-14T02:34:00;1.20;0.70;0.00
64861;PMS5003;62652;42.274;-71.436;2023-12-14T02:35:00;0.97;0.97;0.37
64861;PMS5003;62652;42.274;-71.436;2023-12-14T02:36:00;1.20;1.20;0.10
64861;PMS5003;62652;42.274;-71.436;2023-12-14T02:37:00;1.00;1.00;0.90
64861;PMS5003;62652;42.274;-71.436;2023-12-14T02:38:00;1.67;1.67;1.00
64861;PMS5003;62652;42.274;-71.436;2023-12-14T02:39:00;1.37;0.80;0.60
64861;PMS5003;62652;42.274;-71.436;2023-12-14T02:40:00;0.27;0.10;0.00
64861;PMS5003;62652;42.274;-71.436;2023-12-14T02:41:00;1.57;1.57;1.07
64861;PMS5003;62652;42.274;-71.436;2023-12-14T02:42:00;0.83;0.83;0.53
64861;PMS5003;62652;42.274;-71.436;2023-12-14T02:43:00;0.50;0.50;0.17
64861;PMS5003;62652;42.274;-71.436;2023-12-14T02:44:00;0.87;0.87;0.17
64861;PMS5003;62652;42.274;-71.436;2023-12-14T02:45:00;0.57;0.57;0.00
64861;PMS5003;62652;42.274;-71.436;2023-12-14T02:46:00;0.93;0.93;0.10
64861;PMS5003;62652;42.274;-71.436;2023-12-14T02:47:00;0.73;0.63;0.00
64861;PMS5003;62652;42.274;-71.436;2023-12-14T02:48:00;1.97;1.20;0.93
64861;PMS5003;62652;42.274;-71.436;2023-12-14T02:49:00;1.00;1.00;0.00
64861;PMS5003;62652;42.274;-71.436;2023-12-14T02:50:00;1.00;1.00;0.60
64861;PMS5003;62652;42.274;-71.436;2023-12-14T02:51:00;1.10;1.00;0.70
64861;PMS5003;62652;42.274;-71.436;2023-12-14T02:52:00;1.00;1.00;0.30
64861;PMS5003;62652;42.274;-71.436;2023-12-14T02:53:00;0.80;0.80;0.27
64861;PMS5003;62652;42.274;-71.436;2023-12-14T02:54:00;0.50;0.50;0.30
64861;PMS5003;62652;42.274;-71.436;2023-12-14T02:55:00;1.00;0.67;0.40
64861;PMS5003;62652;42.274;-71.436;2023-12-14T02:56:01;2.13;1.47;1.00
64861;PMS5003;62652;42.274;-71.436;2023-12-14T02:57:00;2.00;1.00;1.00
64861;PMS5003;62652;42.274;-71.436;2023-12-14T02:58:00;1.23;0.90;0.60
64861;PMS5003;62652;42.274;-71.436;2023-12-14T02:59:00;1.07;0.53;0.00
64861;PMS5003;62652;42.274;-71.436;2023-12-14T03:00:00;0.80;0.80;0.23
64861;PMS5003;62652;42.274;-71.436;2023-12-14T03:01:00;1.23;0.90;0.40
64861;PMS5003;62652;42.274;-71.436;2023-12-14T03:02:00;0.70;0.70;0.33
64861;PMS5003;62652;42.274;-71.436;2023-12-14T03:03:00;1.17;1.07;0.67
64861;PMS5003;62652;42.274;-71.436;2023-12-14T03:04:00;1.63;1.43;0.00
64861;PMS5003;62652;42.274;-71.436;2023-12-14T03:05:00;1.43;1.00;0.70
64861;PMS5003;62652;42.274;-71.436;2023-12-14T03:06:00;0.87;0.87;0.00
64861;PMS5003;62652;42.274;-71.436;2023-12-14T03:07:00;1.17;0.83;0.00
64861;PMS5003;62652;42.274;-71.436;2023-12-14T03:08:00;1.33;1.33;0.93
64861;PMS5003;62652;42.274;-71.436;2023-12-14T03:09:00;0.97;0.27;0.00
64861;PMS5003;62652;42.274;-71.436;2023-12-14T03:10:01;0.10;0.10;0.00
64861;PMS5003;62652;42.274;-71.436;2023-12-14T03:11:00;0.97;0.70;0.00
64861;PMS5003;62652;42.274;-71.436;2023-12-14T03:12:00;0.70;0.40;0.00
64861;PMS5003;62652;42.274;-71.436;2023-12-14T03:13:00;0.73;0.67;0.00
64861;PMS5003;62652;42.274;-71.436;2023-12-14T03:14:00;1.00;0.33;0.00
64861;PMS5003;62652;42.274;-71.436;2023-12-14T03:15:00;0.00;0.00;0.00
64861;PMS5003;62652;42.274;-71.436;2023-12-14T03:16:00;0.00;0.00;0.00
64861;PMS5003;62652;42.274;-71.436;2023-12-14T03:17:00;0.00;0.00;0.00
64861;PMS5003;62652;42.274;-71.436;2023-12-14T03:18:00;0.63;0.63;0.00
64861;PMS5003;62652;42.274;-71.436;2023-12-14T03:19:01;0.00;0.00;0.00
64861;PMS5003;62652;42.274;-71.436;2023-12-14T03:20:00;0.37;0.30;0.00
64861;PMS5003;62652;42.274;-71.436;2023-12-14T03:21:00;0.00;0.00;0.00
64861;PMS5003;62652;42.274;-71.436;2023-12-14T03:22:00;0.67;0.03;0.00
64861;PMS5003;62652;42.274;-71.436;2023-12-14T03:23:00;0.00;0.00;0.00
64861;PMS5003;62652;42.274;-71.436;2023-12-14T03:24:00;0.00;0.00;0.00
64861;PMS5003;62652;42.274;-71.436;2023-12-14T03:25:00;0.83;0.83;0.60
64861;PMS5003;62652;42.274;-71.436;2023-12-14T03:26:01;0.00;0.00;0.00
64861;PMS5003;62652;42.274;-71.436;2023-12-14T03:27:00;0.00;0.00;0.00
64861;PMS5003;62652;42.274;-71.436;2023-12-14T03:28:00;0.53;0.43;0.10
64861;PMS5003;62652;42.274;-71.436;2023-12-14T03:29:00;0.40;0.00;0.00
64861;PMS5003;62652;42.274;-71.436;2023-12-14T03:30:00;0.00;0.00;0.00
64861;PMS5003;62652;42.274;-71.436;2023-12-14T03:31:00;0.30;0.00;0.00
64861;PMS5003;62652;42.274;-71.436;2023-12-14T03:32:00;0.00;0.00;0.00
64861;PMS5003;62652;42.274;-71.436;2023-12-14T03:33:00;0.00;0.00;0.00
64861;PMS5003;62652;42.274;-71.436;2023-12-14T03:34:00;0.47;0.00;0.00
64861;PMS5003;62652;42.274;-71.436;2023-12-14T03:35:00;0.33;0.33;0.00
64861;PMS5003;62652;42.274;-71.436;2023-12-14T03:36:00;0.00;0.00;0.00
64861;PMS5003;62652;42.274;-71.436;2023-12-14T03:37:00;0.00;0.00;0.00
64861;PMS5003;62652;42.274;-71.436;2023-12-14T03:38:00;0.00;0.00;0.00
64861;PMS5003;62652;42.274;-71.436;2023-12-14T03:39:00;0.00;0.00;0.00
64861;PMS5003;62652;42.274;-71.436;2023-12-14T03:40:00;0.00;0.00;0.00
64861;PMS5003;62652;42.274;-71.436;2023-12-14T03:41:00;0.03;0.03;0.00
64861;PMS5003;62652;42.274;-71.436;2023-12-14T03:42:00;0.40;0.00;0.00
64861;PMS5003;62652;42.274;-71.436;2023-12-14T03:43:00;0.00;0.00;0.00
64861;PMS5003;62652;42.274;-71.436;2023-12-14T03:44:00;0.67;0.00;0.00
64861;PMS5003;62652;42.274;-71.436;2023-12-14T03:45:00;0.00;0.00;0.00
64861;PMS5003;62652;42.274;-71.436;2023-12-14T03:46:00;0.00;0.00;0.00
64861;PMS5003;62652;42.274;-71.436;2023-12-14T03:47:00;0.00;0.00;0.00
64861;PMS5003;62652;42.274;-71.436;2023-12-14T03:48:00;0.10;0.10;0.00
64861;PMS5003;62652;42.274;-71.436;2023-12-14T03:49:00;0.00;0.00;0.00
64861;PMS5003;62652;42.274;-71.436;2023-12-14T03:50:00;0.00;0.00;0.00
64861;PMS5003;62652;42.274;-71.436;2023-12-14T03:51:02;0.00;0.00;0.00
64861;PMS5003;62652;42.274;-71.436;2023-12-14T03:52:00;0.00;0.00;0.00
64861;PMS5003;62652;42.274;-71.436;2023-12-14T03:53:00;0.00;0.00;0.00
64861;PMS5003;62652;42.274;-71.436;2023-12-14T03:54:00;0.00;0.00;0.00
64861;PMS5003;62652;42.274;-71.436;2023-12-14T03:55:00;0.00;0.00;0.00
64861;PMS5003;62652;42.274;-71.436;2023-12-14T03:56:00;0.77;0.00;0.00
64861;PMS5003;62652;42.274;-71.436;2023-12-14T03:57:00;0.20;0.20;0.00
64861;PMS5003;62652;42.274;-71.436;2023-12-14T03:58:00;0.00;0.00;0.00
64861;PMS5003;62652;42.274;-71.436;2023-12-14T03:59:00;0.00;0.00;0.00
64861;PMS5003;62652;42.274;-71.436;2023-12-14T04:00:00;0.00;0.00;0.00
64861;PMS5003;62652;42.274;-71.436;2023-12-14T04:01:00;0.30;0.30;0.00
64861;PMS5003;62652;42.274;-71.436;2023-12-14T04:02:00;0.00;0.00;0.00
64861;PMS5003;62652;42.274;-71.436;2023-12-14T04:03:01;0.00;0.00;0.00
64861;PMS5003;62652;42.274;-71.436;2023-12-14T04:04:00;0.00;0.00;0.00
64861;PMS5003;62652;42.274;-71.436;2023-12-14T04:05:00;0.00;0.00;0.00
64861;PMS5003;62652;42.274;-71.436;2023-12-14T04:06:00;0.07;0.00;0.00
64861;PMS5003;62652;42.274;-71.436;2023-12-14T04:07:00;0.70;0.00;0.00
64861;PMS5003;62652;42.274;-71.436;2023-12-14T04:08:00;0.97;0.00;0.00
64861;PMS5003;62652;42.274;-71.436;2023-12-14T04:09:00;0.00;0.00;0.00
64861;PMS5003;62652;42.274;-71.436;2023-12-14T04:10:00;0.00;0.00;0.00
64861;PMS5003;62652;42.274;-71.436;2023-12-14T04:11:00;0.00;0.00;0.00
64861;PMS5003;62652;42.274;-71.436;2023-12-14T04:12:00;0.00;0.00;0.00
64861;PMS5003;62652;42.274;-71.436;2023-12-14T04:13:00;0.00;0.00;0.00
64861;PMS5003;62652;42.274;-71.436;2023-12-14T04:14:00;0.00;0.00;0.00
64861;PMS5003;62652;42.274;-71.436;2023-12-14T04:15:00;0.00;0.00;0.00
64861;PMS5003;62652;42.274;-71.436;2023-12-14T04:16:00;0.00;0.00;0.00
64861;PMS5003;62652;42.274;-71.436;2023-12-14T04:17:00;0.00;0.00;0.00
64861;PMS5003;62652;42.274;-71.436;2023-12-14T04:18:00;0.00;0.00;0.00
64861;PMS5003;62652;42.274;-71.436;2023-12-14T04:19:00;0.00;0.00;0.00
64861;PMS5003;62652;42.274;-71.436;2023-12-14T04:20:00;0.00;0.00;0.00
64861;PMS5003;62652;42.274;-71.436;2023-12-14T04:21:00;0.00;0.00;0.00
64861;PMS5003;62652;42.274;-71.436;2023-12-14T04:22:00;0.00;0.00;0.00
64861;PMS5003;62652;42.274;-71.436;2023-12-14T04:23:00;0.00;0.00;0.00
64861;PMS5003;62652;42.274;-71.436;2023-12-14T04:24:00;0.00;0.00;0.00
64861;PMS5003;62652;42.274;-71.436;2023-12-14T04:25:00;0.00;0.00;0.00
64861;PMS5003;62652;42.274;-71.436;2023-12-14T04:26:00;0.00;0.00;0.00
64861;PMS5003;62652;42.274;-71.436;2023-12-14T04:27:00;0.00;0.00;0.00
64861;PMS5003;62652;42.274;-71.436;2023-12-14T04:28:00;0.00;0.00;0.00
64861;PMS5003;62652;42.274;-71.436;2023-12-14T04:29:00;0.00;0.00;0.00
64861;PMS5003;62652;42.274;-71.436;2023-12-14T04:30:00;0.00;0.00;0.00
64861;PMS5003;62652;42.274;-71.436;2023-12-14T04:31:00;0.00;0.00;0.00
64861;PMS5003;62652;42.274;-71.436;2023-12-14T04:32:00;0.53;0.00;0.00
64861;PMS5003;62652;42.274;-71.436;2023-12-14T04:33:00;0.00;0.00;0.00
64861;PMS5003;62652;42.274;-71.436;2023-12-14T04:34:00;0.00;0.00;0.00
64861;PMS5003;62652;42.274;-71.436;2023-12-14T04:35:00;0.00;0.00;0.00
64861;PMS5003;62652;42.274;-71.436;2023-12-14T04:36:00;0.00;0.00;0.00
64861;PMS5003;62652;42.274;-71.436;2023-12-14T04:37:00;0.00;0.00;0.00
64861;PMS5003;62652;42.274;-71.436;2023-12-14T04:38:00;0.00;0.00;0.00
64861;PMS5003;62652;42.274;-71.436;2023-12-14T04:39:00;0.00;0.00;0.00
64861;PMS5003;62652;42.274;-71.436;2023-12-14T04:40:00;0.00;0.00;0.00
64861;PMS5003;62652;42.274;-71.436;2023-12-14T04:41:00;0.00;0.00;0.00
64861;PMS5003;62652;42.274;-71.436;2023-12-14T04:42:00;0.00;0.00;0.00
64861;PMS5003;62652;42.274;-71.436;2023-12-14T04:43:00;0.00;0.00;0.00
64861;PMS5003;62652;42.274;-71.436;2023-12-14T04:44:00;0.00;0.00;0.00
64861;PMS5003;62652;42.274;-71.436;2023-12-14T04:45:00;0.43;0.23;0.00
64861;PMS5003;62652;42.274;-71.436;2023-12-14T04:46:00;0.00;0.00;0.00
64861;PMS5003;62652;42.274;-71.436;2023-12-14T04:47:00;0.43;0.43;0.43
64861;PMS5003;62652;42.274;-71.436;2023-12-14T04:48:00;0.00;0.00;0.00
64861;PMS5003;62652;42.274;-71.436;2023-12-14T04:49:00;0.00;0.00;0.00
64861;PMS5003;62652;42.274;-71.436;2023-12-14T04:50:00;0.00;0.00;0.00
64861;PMS5003;62652;42.274;-71.436;2023-12-14T04:51:00;0.83;0.00;0.00
64861;PMS5003;62652;42.274;-71.436;2023-12-14T04:52:00;0.00;0.00;0.00
64861;PMS5003;62652;42.274;-71.436;2023-12-14T04:53:00;0.00;0.00;0.00
64861;PMS5003;62652;42.274;-71.436;2023-12-14T04:54:00;0.00;0.00;0.00
64861;PMS5003;62652;42.274;-71.436;2023-12-14T04:55:00;0.00;0.00;0.00
64861;PMS5003;62652;42.274;-71.436;2023-12-14T04:56:00;0.00;0.00;0.00
64861;PMS5003;62652;42.274;-71.436;2023-12-14T04:57:00;0.00;0.00;0.00
64861;PMS5003;62652;42.274;-71.436;2023-12-14T04:58:00;0.00;0.00;0.00
64861;PMS5003;62652;42.274;-71.436;2023-12-14T04:59:00;0.00;0.00;0.00
64861;PMS5003;62652;42.274;-71.436;2023-12-14T05:00:00;0.00;0.00;0.00
64861;PMS5003;62652;42.274;-71.436;2023-12-14T05:01:00;0.00;0.00;0.00
64861;PMS5003;62652;42.274;-71.436;2023-12-14T05:02:00;0.00;0.00;0.00
64861;PMS5003;62652;42.274;-71.436;2023-12-14T05:03:00;0.00;0.00;0.00
64861;PMS5003;62652;42.274;-71.436;2023-12-14T05:04:00;0.00;0.00;0.00
64861;PMS5003;62652;42.274;-71.436;2023-12-14T05:05:00;0.00;0.00;0.00
64861;PMS5003;62652;42.274;-71.436;2023-12-14T05:06:00;0.00;0.00;0.00
64861;PMS5003;62652;42.274;-71.436;2023-12-14T05:07:00;0.00;0.00;0.00
64861;PMS5003;62652;42.274;-71.436;2023-12-14T05:08:00;0.00;0.00;0.00
64861;PMS5003;62652;42.274;-71.436;2023-12-14T05:09:00;0.00;0.00;0.00
64861;PMS5003;62652;42.274;-71.436;2023-12-14T05:10:00;0.00;0.00;0.00
64861;PMS5003;62652;42.274;-71.436;2023-12-14T05:11:00;0.00;0.00;0.00
64861;PMS5003;62652;42.274;-71.436;2023-12-14T05:12:00;0.00;0.00;0.00
64861;PMS5003;62652;42.274;-71.436;2023-12-14T05:13:00;0.00;0.00;0.00
64861;PMS5003;62652;42.274;-71.436;2023-12-14T05:14:00;0.00;0.00;0.00
64861;PMS5003;62652;42.274;-71.436;2023-12-14T05:15:00;0.00;0.00;0.00
64861;PMS5003;62652;42.274;-71.436;2023-12-14T05:16:00;0.00;0.00;0.00
64861;PMS5003;62652;42.274;-71.436;2023-12-14T05:17:00;0.00;0.00;0.00
64861;PMS5003;62652;42.274;-71.436;2023-12-14T05:18:00;0.10;0.10;0.00
64861;PMS5003;62652;42.274;-71.436;2023-12-14T05:19:00;0.00;0.00;0.00
64861;PMS5003;62652;42.274;-71.436;2023-12-14T05:20:00;0.00;0.00;0.00
64861;PMS5003;62652;42.274;-71.436;2023-12-14T05:21:00;0.00;0.00;0.00
64861;PMS5003;62652;42.274;-71.436;2023-12-14T05:22:00;0.00;0.00;0.00
64861;PMS5003;62652;42.274;-71.436;2023-12-14T05:23:00;0.00;0.00;0.00
64861;PMS5003;62652;42.274;-71.436;2023-12-14T05:24:00;0.00;0.00;0.00
64861;PMS5003;62652;42.274;-71.436;2023-12-14T05:25:00;0.00;0.00;0.00
64861;PMS5003;62652;42.274;-71.436;2023-12-14T05:26:00;0.00;0.00;0.00
64861;PMS5003;62652;42.274;-71.436;2023-12-14T05:27:00;0.00;0.00;0.00
64861;PMS5003;62652;42.274;-71.436;2023-12-14T05:28:00;0.00;0.00;0.00
64861;PMS5003;62652;42.274;-71.436;2023-12-14T05:29:00;0.00;0.00;0.00
64861;PMS5003;62652;42.274;-71.436;2023-12-14T05:30:00;0.00;0.00;0.00
64861;PMS5003;62652;42.274;-71.436;2023-12-14T05:31:00;0.00;0.00;0.00
64861;PMS5003;62652;42.274;-71.436;2023-12-14T05:32:00;0.00;0.00;0.00
64861;PMS5003;62652;42.274;-71.436;2023-12-14T05:33:00;0.00;0.00;0.00
64861;PMS5003;62652;42.274;-71.436;2023-12-14T05:34:00;0.00;0.00;0.00
64861;PMS5003;62652;42.274;-71.436;2023-12-14T05:35:00;0.00;0.00;0.00
64861;PMS5003;62652;42.274;-71.436;2023-12-14T05:36:00;0.00;0.00;0.00
64861;PMS5003;62652;42.274;-71.436;2023-12-14T05:37:00;0.00;0.00;0.00
64861;PMS5003;62652;42.274;-71.436;2023-12-14T05:38:00;0.00;0.00;0.00
64861;PMS5003;62652;42.274;-71.436;2023-12-14T05:39:00;0.00;0.00;0.00
64861;PMS5003;62652;42.274;-71.436;2023-12-14T05:40:00;0.00;0.00;0.00
64861;PMS5003;62652;42.274;-71.436;2023-12-14T05:41:00;0.00;0.00;0.00